createdAt,value
2022-10-31T00:01:36.568Z,15.30
2022-10-31T00:04:43.830Z,15.80
2022-10-31T00:07:51.101Z,14.30
2022-10-31T00:10:58.921Z,14.80
2022-10-31T00:14:06.269Z,14.80
2022-10-31T00:17:13.533Z,13.20
2022-10-31T00:20:21.278Z,14.80
2022-10-31T00:23:28.642Z,15.00
2022-10-31T00:26:35.811Z,12.50
2022-10-31T00:29:43.404Z,14.00
2022-10-31T00:32:50.228Z,15.60
2022-10-31T00:35:57.873Z,14.20
2022-10-31T00:39:05.459Z,16.00
2022-10-31T00:42:12.240Z,14.00
2022-10-31T00:45:19.891Z,13.40
2022-10-31T00:48:27.527Z,13.30
2022-10-31T00:51:34.327Z,17.90
2022-10-31T00:54:41.885Z,15.30
2022-10-31T00:57:48.622Z,14.20
2022-10-31T01:00:56.464Z,14.80
2022-10-31T01:04:04.364Z,16.90
2022-10-31T01:07:11.234Z,13.00
2022-10-31T01:10:18.560Z,11.20
2022-10-31T01:13:26.191Z,11.50
2022-10-31T01:16:33.233Z,11.90
2022-10-31T01:19:41.039Z,12.70
2022-10-31T01:22:48.459Z,11.40
2022-10-31T01:25:55.677Z,12.60
2022-10-31T01:29:03.383Z,13.90
2022-10-31T01:32:10.537Z,15.00
2022-10-31T01:35:17.842Z,15.30
2022-10-31T01:38:25.338Z,16.40
2022-10-31T01:41:32.570Z,15.50
2022-10-31T01:44:39.852Z,11.60
2022-10-31T01:47:49.207Z,14.30
2022-10-31T01:50:56.584Z,13.60
2022-10-31T01:54:03.900Z,13.20
2022-10-31T01:57:11.336Z,17.50
2022-10-31T02:00:19.250Z,13.30
2022-10-31T02:03:26.533Z,12.10
2022-10-31T02:06:33.696Z,15.10
2022-10-31T02:09:41.253Z,16.80
2022-10-31T02:12:48.539Z,14.00
2022-10-31T02:15:55.930Z,12.70
2022-10-31T02:19:03.395Z,12.70
2022-10-31T02:22:10.471Z,14.80
2022-10-31T02:25:18.248Z,13.40
2022-10-31T02:28:25.743Z,13.40
2022-10-31T02:31:32.700Z,13.00
2022-10-31T02:34:40.283Z,9.70
2022-10-31T02:37:47.187Z,12.20
2022-10-31T02:40:54.729Z,21.50
2022-10-31T02:44:02.338Z,11.00
2022-10-31T02:47:09.368Z,9.40
2022-10-31T02:50:16.838Z,13.70
2022-10-31T02:53:24.615Z,13.40
2022-10-31T02:56:31.582Z,14.50
2022-10-31T02:59:39.370Z,14.30
2022-10-31T03:02:46.981Z,16.50
2022-10-31T03:05:53.871Z,18.00
2022-10-31T03:09:01.827Z,11.70
2022-10-31T03:12:09.156Z,14.80
2022-10-31T03:15:16.564Z,14.40
2022-10-31T03:18:24.275Z,18.70
2022-10-31T03:21:31.512Z,13.60
2022-10-31T03:24:38.734Z,15.80
2022-10-31T03:27:45.965Z,15.20
2022-10-31T03:30:53.604Z,17.80
2022-10-31T03:34:00.875Z,13.70
2022-10-31T03:37:08.242Z,18.40
2022-10-31T03:40:16.084Z,23.20
2022-10-31T03:46:30.759Z,24.60
2022-10-31T03:49:38.487Z,24.70
2022-10-31T03:52:45.459Z,22.80
2022-10-31T03:55:53.165Z,24.00
2022-10-31T03:59:00.639Z,26.10
2022-10-31T04:02:07.701Z,20.20
2022-10-31T04:05:15.428Z,20.20
2022-10-31T04:08:23.172Z,20.70
2022-10-31T04:11:30.278Z,23.30
2022-10-31T04:14:38.131Z,25.40
2022-10-31T04:17:45.686Z,21.70
2022-10-31T04:20:52.747Z,22.30
2022-10-31T04:23:59.961Z,20.00
2022-10-31T04:27:06.822Z,26.40
2022-10-31T04:30:14.447Z,25.00
2022-10-31T04:33:22.441Z,25.10
2022-10-31T04:36:29.468Z,28.20
2022-10-31T04:39:37.186Z,25.20
2022-10-31T04:42:45.075Z,23.00
2022-10-31T04:45:51.962Z,29.00
2022-10-31T04:48:59.669Z,29.90
2022-10-31T04:52:07.117Z,23.90
2022-10-31T04:55:14.652Z,28.50
2022-10-31T04:58:22.425Z,30.90
2022-10-31T05:01:29.569Z,30.20
2022-10-31T05:04:37.443Z,34.40
2022-10-31T05:07:44.825Z,34.10
2022-10-31T05:10:51.821Z,29.20
2022-10-31T05:13:59.934Z,27.10
2022-10-31T05:17:07.514Z,26.90
2022-10-31T05:20:15.078Z,26.10
2022-10-31T05:23:22.624Z,34.90
2022-10-31T05:26:29.976Z,33.00
2022-10-31T05:29:37.513Z,33.80
2022-10-31T05:32:45.401Z,38.90
2022-10-31T05:35:52.793Z,35.40
2022-10-31T05:39:00.159Z,36.70
2022-10-31T05:42:07.252Z,41.70
2022-10-31T05:45:15.245Z,43.30
2022-10-31T05:48:22.436Z,42.80
2022-10-31T05:51:29.490Z,42.50
2022-10-31T05:54:37.412Z,48.00
2022-10-31T05:57:44.796Z,50.40
2022-10-31T06:00:52.299Z,48.70
2022-10-31T06:03:59.957Z,47.60
2022-10-31T06:07:07.713Z,45.50
2022-10-31T06:10:15.172Z,58.70
2022-10-31T06:13:22.819Z,47.00
2022-10-31T06:16:30.234Z,57.00
2022-10-31T06:19:38.004Z,57.30
2022-10-31T06:22:45.857Z,57.30
2022-10-31T06:25:52.956Z,56.80
2022-10-31T06:29:03.134Z,57.60
2022-10-31T06:32:01.359Z,61.20
2022-10-31T06:35:08.293Z,60.80
2022-10-31T06:38:15.727Z,57.50
2022-10-31T06:41:23.047Z,58.60
2022-10-31T06:44:30.301Z,57.90
2022-10-31T06:47:50.843Z,49.10
2022-10-31T06:50:42.713Z,48.30
2022-10-31T06:53:50.204Z,52.60
2022-10-31T06:56:57.855Z,51.30
2022-10-31T07:00:05.333Z,46.50
2022-10-31T07:03:12.711Z,46.10
2022-10-31T07:06:20.085Z,47.00
2022-10-31T07:09:27.669Z,53.40
2022-10-31T07:12:35.027Z,41.00
2022-10-31T07:15:42.396Z,41.90
2022-10-31T07:18:49.847Z,40.10
2022-10-31T07:21:57.252Z,42.50
2022-10-31T07:25:04.629Z,43.20
2022-10-31T07:28:12.370Z,33.40
2022-10-31T07:31:19.386Z,34.30
2022-10-31T07:34:26.974Z,33.70
2022-10-31T07:37:34.673Z,28.50
2022-10-31T07:40:41.726Z,32.90
2022-10-31T07:43:49.506Z,33.70
2022-10-31T07:46:57.286Z,32.10
2022-10-31T07:50:04.188Z,34.10
2022-10-31T07:53:12.042Z,43.70
2022-10-31T07:56:19.568Z,35.50
2022-10-31T07:59:26.623Z,41.60
2022-10-31T08:02:34.522Z,35.80
2022-10-31T08:05:41.554Z,35.50
2022-10-31T08:08:49.184Z,30.60
2022-10-31T08:11:57.154Z,42.00
2022-10-31T08:15:04.219Z,29.60
2022-10-31T08:18:12.216Z,29.90
2022-10-31T08:21:20.241Z,32.20
2022-10-31T08:24:27.552Z,48.60
2022-10-31T08:27:35.664Z,45.80
2022-10-31T08:30:45.657Z,35.70
2022-10-31T08:33:52.805Z,35.20
2022-10-31T08:37:00.716Z,48.10
2022-10-31T08:40:08.120Z,45.50
2022-10-31T08:43:15.817Z,44.70
2022-10-31T08:46:23.465Z,39.30
2022-10-31T08:49:30.935Z,43.10
2022-10-31T08:53:03.494Z,42.00
2022-10-31T08:55:42.741Z,42.80
2022-10-31T08:58:50.512Z,40.30
2022-10-31T09:01:58.267Z,42.00
2022-10-31T09:05:05.306Z,47.30
2022-10-31T09:08:16.398Z,42.30
2022-10-31T09:11:14.028Z,42.40
2022-10-31T09:14:21.060Z,42.30
2022-10-31T09:17:28.792Z,42.10
2022-10-31T09:20:35.777Z,43.30
2022-10-31T09:23:43.280Z,45.10
2022-10-31T09:26:50.846Z,38.60
2022-10-31T09:29:58.150Z,43.20
2022-10-31T09:33:05.443Z,39.70
2022-10-31T09:36:12.927Z,40.50
2022-10-31T09:39:20.159Z,39.60
2022-10-31T09:42:27.873Z,41.60
2022-10-31T09:45:34.892Z,43.40
2022-10-31T09:48:42.573Z,37.10
2022-10-31T09:51:52.959Z,43.30
2022-10-31T09:55:00.077Z,39.30
2022-10-31T09:58:07.514Z,43.80
2022-10-31T10:01:15.345Z,38.90
2022-10-31T10:04:22.233Z,39.30
2022-10-31T10:07:29.804Z,40.30
2022-10-31T10:10:36.948Z,46.70
2022-10-31T10:13:44.260Z,44.70
2022-10-31T10:16:52.114Z,45.30
2022-10-31T10:17:47.994Z,48.30
2022-10-31T10:18:54.435Z,44.40
2022-10-31T10:19:37.556Z,41.50
2022-10-31T10:20:54.523Z,46.30
2022-10-31T10:21:38.028Z,42.50
2022-10-31T10:22:42.804Z,38.40
2022-10-31T10:23:25.963Z,41.60
2022-10-31T10:24:09.079Z,39.40
2022-10-31T10:24:54.905Z,41.20
2022-10-31T10:25:38.374Z,44.40
2022-10-31T10:26:43.166Z,39.00
2022-10-31T10:28:03.106Z,37.90
2022-10-31T10:31:11.990Z,38.50
2022-10-31T10:34:19.229Z,43.50
2022-10-31T10:36:49.728Z,43.10
2022-10-31T10:37:53.592Z,42.00
2022-10-31T10:40:53.486Z,37.30
2022-10-31T10:43:57.529Z,42.70
2022-10-31T10:47:04.504Z,39.70
2022-10-31T10:50:11.826Z,38.40
2022-10-31T10:53:19.637Z,33.40
2022-10-31T10:56:26.883Z,32.40
2022-10-31T10:59:34.138Z,32.80
2022-10-31T11:02:42.873Z,25.70
2022-10-31T11:05:52.272Z,31.80
2022-10-31T11:08:59.561Z,19.70
2022-10-31T11:12:07.004Z,20.60
2022-10-31T11:15:13.938Z,24.30
2022-10-31T11:18:18.565Z,27.30
2022-10-31T11:21:26.486Z,26.60
2022-10-31T11:24:33.405Z,24.70
2022-10-31T11:27:40.996Z,23.30
2022-10-31T11:30:48.164Z,25.10
2022-10-31T11:33:55.385Z,23.80
2022-10-31T11:37:02.548Z,28.30
2022-10-31T11:40:09.935Z,23.20
2022-10-31T11:43:17.103Z,26.00
2022-10-31T11:46:24.450Z,26.90
2022-10-31T11:49:31.277Z,24.20
2022-10-31T11:52:38.875Z,25.70
2022-10-31T11:55:46.235Z,29.00
2022-10-31T11:58:53.397Z,27.30
2022-10-31T12:02:01.001Z,32.50
2022-10-31T12:05:08.247Z,28.30
2022-10-31T12:08:15.384Z,31.70
2022-10-31T12:11:23.300Z,31.70
2022-10-31T12:14:30.538Z,28.30
2022-10-31T12:17:38.008Z,28.20
2022-10-31T12:20:45.202Z,28.30
2022-10-31T12:23:52.204Z,31.10
2022-10-31T12:26:59.635Z,29.00
2022-10-31T12:30:06.886Z,24.90
2022-10-31T12:33:15.003Z,36.10
2022-10-31T12:36:21.981Z,27.70
2022-10-31T12:39:29.589Z,28.60
2022-10-31T12:42:36.701Z,25.70
2022-10-31T12:45:43.845Z,28.90
2022-10-31T12:48:55.491Z,25.30
2022-10-31T12:51:54.365Z,28.10
2022-10-31T12:55:01.907Z,28.70
2022-10-31T12:58:09.367Z,28.10
2022-10-31T13:01:16.342Z,23.70
2022-10-31T13:04:23.911Z,24.90
2022-10-31T13:07:31.643Z,24.70
2022-10-31T13:10:38.531Z,23.90
2022-10-31T13:13:46.284Z,21.20
2022-10-31T13:16:53.480Z,19.10
2022-10-31T13:20:00.715Z,15.50
2022-10-31T13:23:18.146Z,15.70
2022-10-31T13:26:12.565Z,13.20
2022-10-31T13:29:20.132Z,8.20
2022-10-31T13:32:27.687Z,9.20
2022-10-31T13:35:34.578Z,6.00
2022-10-31T13:38:42.139Z,9.90
2022-10-31T13:41:49.367Z,7.20
2022-10-31T13:44:56.520Z,8.80
2022-10-31T13:48:04.399Z,10.10
2022-10-31T13:51:12.288Z,10.80
2022-10-31T13:54:19.553Z,7.40
2022-10-31T13:57:30.295Z,10.50
2022-10-31T14:00:30.746Z,11.50
2022-10-31T14:04:03.616Z,12.10
2022-10-31T14:06:42.806Z,13.70
2022-10-31T14:09:50.449Z,14.20
2022-10-31T14:12:57.618Z,15.40
2022-10-31T14:16:04.814Z,14.60
2022-10-31T14:19:12.822Z,16.70
2022-10-31T14:22:19.850Z,16.20
2022-10-31T14:25:27.546Z,16.30
2022-10-31T14:28:35.157Z,17.00
2022-10-31T14:31:43.686Z,13.60
2022-10-31T14:34:51.488Z,15.50
2022-10-31T14:37:59.247Z,17.40
2022-10-31T14:41:06.755Z,13.30
2022-10-31T14:44:14.392Z,13.40
2022-10-31T14:47:21.466Z,19.80
2022-10-31T14:50:29.141Z,17.50
2022-10-31T14:53:36.994Z,18.10
2022-10-31T14:56:43.999Z,16.10
2022-10-31T14:59:51.787Z,16.20
2022-10-31T15:03:00.004Z,13.80
2022-10-31T15:06:07.352Z,13.90
2022-10-31T15:09:14.638Z,18.80
2022-10-31T15:12:23.370Z,17.60
2022-10-31T15:15:30.352Z,17.30
2022-10-31T15:18:38.544Z,15.10
2022-10-31T15:21:45.453Z,17.90
2022-10-31T15:24:53.577Z,15.90
2022-10-31T15:28:01.974Z,18.20
2022-10-31T15:31:09.216Z,17.50
2022-10-31T15:34:16.828Z,18.20
2022-10-31T15:37:23.876Z,15.90
2022-10-31T15:40:31.278Z,24.00
2022-10-31T15:43:39.063Z,34.00
2022-10-31T15:46:46.169Z,48.00
2022-10-31T15:49:53.779Z,41.30
2022-10-31T15:53:02.409Z,56.90
2022-10-31T15:56:09.607Z,60.80
2022-10-31T15:59:16.920Z,63.30
2022-10-31T16:02:25.196Z,72.20
2022-10-31T16:05:32.835Z,68.90
2022-10-31T16:08:40.777Z,69.60
2022-10-31T16:11:48.021Z,75.80
2022-10-31T16:14:55.069Z,73.00
2022-10-31T16:18:02.822Z,81.90
2022-10-31T16:21:10.085Z,87.20
2022-10-31T16:24:17.188Z,95.20
2022-10-31T16:27:24.637Z,84.40
2022-10-31T16:30:31.962Z,96.70
2022-10-31T16:33:39.303Z,98.80
2022-10-31T16:36:46.649Z,102.90
2022-10-31T16:39:54.046Z,106.60
2022-10-31T16:43:01.376Z,123.40
2022-10-31T16:46:08.868Z,128.70
2022-10-31T16:49:15.990Z,126.40
2022-10-31T16:52:23.446Z,125.50
2022-10-31T16:55:30.855Z,130.00
2022-10-31T16:58:38.137Z,137.50
2022-10-31T17:01:45.581Z,139.60
2022-10-31T17:04:55.837Z,137.00
2022-10-31T17:07:53.540Z,150.60
2022-10-31T17:11:01.381Z,151.90
2022-10-31T17:14:09.327Z,154.20
2022-10-31T17:17:16.512Z,164.90
2022-10-31T17:20:23.723Z,167.70
2022-10-31T17:23:31.554Z,177.80
2022-10-31T17:26:38.525Z,146.70
2022-10-31T17:29:46.392Z,169.40
2022-10-31T17:32:53.955Z,165.90
2022-10-31T17:36:00.847Z,147.40
2022-10-31T17:39:08.358Z,159.80
2022-10-31T17:42:15.629Z,162.70
2022-10-31T17:45:22.568Z,158.40
2022-10-31T17:48:30.330Z,166.80
2022-10-31T17:51:37.552Z,146.70
2022-10-31T17:54:45.393Z,148.80
2022-10-31T17:57:52.987Z,126.60
2022-10-31T18:01:00.227Z,123.20
2022-10-31T18:04:07.044Z,128.40
2022-10-31T18:07:14.297Z,121.40
2022-10-31T18:10:21.643Z,129.00
2022-10-31T18:13:28.965Z,133.60
2022-10-31T18:19:43.692Z,125.00
2022-10-31T18:22:50.717Z,125.70
2022-10-31T18:25:57.980Z,134.20
2022-10-31T18:29:05.429Z,140.20
2022-10-31T18:32:12.656Z,127.90
2022-10-31T18:35:19.491Z,131.50
2022-10-31T18:38:27.211Z,137.20
2022-10-31T18:41:34.212Z,126.60
2022-10-31T18:44:41.418Z,132.10
2022-10-31T18:47:48.917Z,122.40
2022-10-31T18:50:56.211Z,129.00
2022-10-31T18:54:03.517Z,121.10
2022-10-31T18:57:10.556Z,129.20
2022-10-31T19:00:17.968Z,129.60
2022-10-31T19:03:26.476Z,129.70
2022-10-31T19:06:33.743Z,139.50
2022-10-31T19:09:41.220Z,136.40
2022-10-31T19:12:48.523Z,141.50
2022-10-31T19:15:55.585Z,129.40
2022-10-31T19:19:02.463Z,124.80
2022-10-31T19:22:09.870Z,126.30
2022-10-31T19:25:18.068Z,131.90
2022-10-31T19:28:25.428Z,130.80
2022-10-31T19:31:32.920Z,119.70
2022-10-31T19:34:40.065Z,125.10
2022-10-31T19:37:48.643Z,137.20
2022-10-31T19:40:56.343Z,142.00
2022-10-31T19:44:03.170Z,147.20
2022-10-31T19:47:10.755Z,141.10
2022-10-31T19:50:18.100Z,153.80
2022-10-31T19:53:25.750Z,155.10
2022-10-31T19:56:33.200Z,157.30
2022-10-31T19:59:40.594Z,153.70
2022-10-31T20:02:48.148Z,154.70
2022-10-31T20:05:55.626Z,164.40
2022-10-31T20:09:02.716Z,154.20
2022-10-31T20:12:09.809Z,165.10
2022-10-31T20:15:17.026Z,162.80
2022-10-31T20:18:25.105Z,154.30
2022-10-31T20:21:32.343Z,161.90
2022-10-31T20:24:39.457Z,166.10
2022-10-31T20:27:47.125Z,151.60
2022-10-31T20:30:54.534Z,158.90
2022-10-31T20:34:01.675Z,174.20
2022-10-31T20:37:09.119Z,166.60
2022-10-31T20:40:16.240Z,167.40
2022-10-31T20:43:23.298Z,172.80
2022-10-31T20:46:30.786Z,152.80
2022-10-31T20:49:37.580Z,167.40
2022-10-31T20:52:45.091Z,155.00
2022-10-31T20:55:52.142Z,162.00
2022-10-31T20:58:58.923Z,161.40
2022-10-31T21:02:06.625Z,149.20
2022-10-31T21:05:13.923Z,145.10
2022-10-31T21:08:20.664Z,139.80
2022-10-31T21:11:28.163Z,129.60
2022-10-31T21:14:35.271Z,122.30
2022-10-31T21:17:42.516Z,123.70
2022-10-31T21:20:49.917Z,118.60
2022-10-31T21:23:56.696Z,119.70
2022-10-31T21:27:06.267Z,111.30
2022-10-31T21:30:05.251Z,113.10
2022-10-31T21:33:12.113Z,115.00
2022-10-31T21:36:19.627Z,113.30
2022-10-31T21:39:27.002Z,107.30
2022-10-31T21:42:33.783Z,105.10
2022-10-31T21:45:41.383Z,103.80
2022-10-31T21:48:48.622Z,113.70
2022-10-31T21:51:55.854Z,106.00
2022-10-31T21:55:03.485Z,104.90
2022-10-31T21:58:10.602Z,105.90
2022-10-31T22:01:17.802Z,111.40
2022-10-31T22:04:25.309Z,110.10
2022-10-31T22:07:32.478Z,109.50
2022-10-31T22:10:39.540Z,109.10
2022-10-31T22:13:46.606Z,101.70
2022-10-31T22:16:53.553Z,106.20
2022-10-31T22:20:00.481Z,110.40
2022-10-31T22:23:07.633Z,112.20
2022-10-31T22:26:15.189Z,108.20
2022-10-31T22:29:22.468Z,121.70
2022-10-31T22:32:29.703Z,124.90
2022-10-31T22:35:37.073Z,107.10
2022-10-31T22:38:43.958Z,119.20
2022-10-31T22:41:51.718Z,126.00
2022-10-31T22:44:59.269Z,128.50
2022-10-31T22:48:06.109Z,125.30
2022-10-31T22:51:13.710Z,124.80
2022-10-31T22:54:21.241Z,133.80
2022-10-31T22:57:28.012Z,131.60
2022-10-31T23:00:35.552Z,130.20
2022-10-31T23:03:42.417Z,132.20
2022-10-31T23:06:49.755Z,135.40
2022-10-31T23:09:57.285Z,134.50
2022-10-31T23:13:03.997Z,146.30
2022-10-31T23:16:11.604Z,134.00
2022-10-31T23:19:18.868Z,141.40
2022-10-31T23:22:25.878Z,134.30
2022-10-31T23:25:33.071Z,151.40
2022-10-31T23:28:40.120Z,162.40
2022-10-31T23:31:47.738Z,158.80
2022-10-31T23:34:54.919Z,151.80
2022-10-31T23:38:02.297Z,142.10
2022-10-31T23:41:09.823Z,147.90
2022-10-31T23:44:16.703Z,153.90
2022-10-31T23:47:24.286Z,140.10
2022-10-31T23:50:31.887Z,156.00
2022-10-31T23:53:38.670Z,149.00
2022-10-31T23:56:45.874Z,157.80
2022-10-31T23:59:53.007Z,145.30
